KLM861 EHAM-LGAV
Flight info
| Callsign | KLM861 |
|---|---|
| Flight time | 2h 47m |
| Altitude | 37000 |
| Route | EDUPO Z739 MISGO DCT DOJOH DCT DODEN DCT NEGIX DCT DINKU M867 XERUM DCT BAVAX DCT RADIZ DCT LUMUS DCT GORPA DCT ELTIB DCT PINDO DCT PIKOS UL607 XORKI |
| Aircraft | B742/H-SDFHIRWXY/L |
Departure
| Time | 2026-05-07 07:40 |
|---|---|
| Airport | Amsterdam Airport Schiphol (EHAM) |
Arrival
| Time | 2026-05-07 10:27 |
|---|---|
| Airport | Athens Eleftherios Venizelos International Airport (LGAV) |
| Time | Latitude | Longitude | Altitude | Speed | Heading |
|---|---|---|---|---|---|
| 2026-05-07 06:41 | 52.31005 | 4.77354 | 1 ft | 0 kts | 183° |
| 2026-05-07 06:42 | 52.31001 | 4.77353 | 1 ft | 0 kts | 183° |
| 2026-05-07 07:16 | 52.31005 | 4.77354 | 1 ft | 2 kts | 183° |
| 2026-05-07 07:17 | 52.31016 | 4.77355 | 1 ft | 0 kts | 183° |
| 2026-05-07 07:17 | 52.31030 | 4.77354 | 1 ft | 2 kts | 170° |
| 2026-05-07 07:17 | 52.31044 | 4.77347 | 1 ft | 2 kts | 152° |
| 2026-05-07 07:17 | 52.31056 | 4.77333 | 1 ft | 2 kts | 137° |
| 2026-05-07 07:18 | 52.31066 | 4.77314 | 1 ft | 2 kts | 121° |
| 2026-05-07 07:18 | 52.31072 | 4.77292 | 1 ft | 2 kts | 105° |
| 2026-05-07 07:18 | 52.31074 | 4.77274 | 1 ft | 0 kts | 93° |
| 2026-05-07 07:18 | 52.31073 | 4.77290 | 1 ft | 4 kts | 95° |
| 2026-05-07 07:19 | 52.31071 | 4.77352 | 1 ft | 3 kts | 93° |
| 2026-05-07 07:19 | 52.31071 | 4.77366 | 1 ft | 0 kts | 93° |
| 2026-05-07 07:26 | 52.31071 | 4.77367 | 1 ft | 0 kts | 93° |
| 2026-05-07 07:26 | 52.31070 | 4.77370 | 1 ft | 1 kts | 92° |
| 2026-05-07 07:26 | 52.31070 | 4.77409 | 1 ft | 5 kts | 92° |
| 2026-05-07 07:27 | 52.31085 | 4.77477 | 1 ft | 7 kts | 39° |
| 2026-05-07 07:27 | 52.31148 | 4.77497 | 1 ft | 10 kts | 2° |
| 2026-05-07 07:27 | 52.31233 | 4.77503 | 1 ft | 13 kts | 1° |
| 2026-05-07 07:27 | 52.31325 | 4.77448 | 1 ft | 15 kts | 320° |
| 2026-05-07 07:28 | 52.31398 | 4.77313 | 1 ft | 14 kts | 310° |
| 2026-05-07 07:28 | 52.31460 | 4.77209 | 1 ft | 11 kts | 334° |
| 2026-05-07 07:28 | 52.31536 | 4.77198 | 1 ft | 10 kts | 344° |
| 2026-05-07 07:28 | 52.31566 | 4.77101 | 1 ft | 11 kts | 271° |
| 2026-05-07 07:29 | 52.31564 | 4.76960 | 1 ft | 13 kts | 266° |
| 2026-05-07 07:29 | 52.31558 | 4.76788 | 1 ft | 16 kts | 266° |
| 2026-05-07 07:29 | 52.31551 | 4.76599 | 1 ft | 16 kts | 267° |
| 2026-05-07 07:29 | 52.31544 | 4.76410 | 1 ft | 16 kts | 267° |
| 2026-05-07 07:30 | 52.31539 | 4.76222 | 1 ft | 16 kts | 266° |
| 2026-05-07 07:30 | 52.31530 | 4.76031 | 1 ft | 16 kts | 266° |
| 2026-05-07 07:30 | 52.31524 | 4.75844 | 1 ft | 16 kts | 267° |
| 2026-05-07 07:30 | 52.31518 | 4.75656 | 1 ft | 16 kts | 267° |
| 2026-05-07 07:31 | 52.31511 | 4.75467 | 1 ft | 16 kts | 267° |
| 2026-05-07 07:31 | 52.31505 | 4.75278 | 1 ft | 16 kts | 267° |
| 2026-05-07 07:31 | 52.31499 | 4.75089 | 1 ft | 16 kts | 267° |
| 2026-05-07 07:31 | 52.31492 | 4.74897 | 1 ft | 16 kts | 266° |
| 2026-05-07 07:32 | 52.31485 | 4.74709 | 1 ft | 16 kts | 267° |
| 2026-05-07 07:32 | 52.31479 | 4.74520 | 1 ft | 16 kts | 267° |
| 2026-05-07 07:32 | 52.31473 | 4.74350 | 1 ft | 12 kts | 266° |
| 2026-05-07 07:32 | 52.31453 | 4.74211 | 1 ft | 12 kts | 236° |
| 2026-05-07 07:33 | 52.31381 | 4.74143 | 1 ft | 12 kts | 190° |
| 2026-05-07 07:33 | 52.31285 | 4.74130 | 1 ft | 15 kts | 184° |
| 2026-05-07 07:33 | 52.31169 | 4.74119 | 1 ft | 17 kts | 183° |
| 2026-05-07 07:33 | 52.31049 | 4.74109 | 1 ft | 17 kts | 183° |
| 2026-05-07 07:34 | 52.30932 | 4.74099 | 1 ft | 16 kts | 183° |
| 2026-05-07 07:34 | 52.30817 | 4.74088 | 1 ft | 16 kts | 183° |
| 2026-05-07 07:34 | 52.30702 | 4.74080 | 1 ft | 16 kts | 183° |
| 2026-05-07 07:34 | 52.30589 | 4.74069 | 1 ft | 16 kts | 183° |
| 2026-05-07 07:35 | 52.30476 | 4.74060 | 1 ft | 16 kts | 183° |
| 2026-05-07 07:35 | 52.30376 | 4.74052 | 1 ft | 12 kts | 182° |
| 2026-05-07 07:35 | 52.30297 | 4.74021 | 1 ft | 11 kts | 213° |
| 2026-05-07 07:35 | 52.30241 | 4.73951 | 1 ft | 4 kts | 218° |
| 2026-05-07 07:36 | 52.30239 | 4.73948 | 1 ft | 0 kts | 218° |
| 2026-05-07 07:37 | 52.30235 | 4.73944 | 1 ft | 2 kts | 218° |
| 2026-05-07 07:37 | 52.30210 | 4.73911 | 1 ft | 6 kts | 220° |
| 2026-05-07 07:37 | 52.30187 | 4.73844 | 1 ft | 6 kts | 266° |
| 2026-05-07 07:37 | 52.30200 | 4.73770 | 1 ft | 6 kts | 306° |
| 2026-05-07 07:38 | 52.30238 | 4.73746 | 1 ft | 5 kts | 2° |
| 2026-05-07 07:38 | 52.30242 | 4.73746 | 1 ft | 0 kts | 2° |
| 2026-05-07 07:39 | 52.30278 | 4.73749 | 1 ft | 25 kts | 3° |
| 2026-05-07 07:39 | 52.30684 | 4.73785 | 1 ft | 89 kts | 4° |
| 2026-05-07 07:39 | 52.31496 | 4.73857 | 1 ft | 144 kts | 3° |
| 2026-05-07 07:40 | 52.32621 | 4.73964 | 225 ft | 169 kts | 5° |
| 2026-05-07 07:40 | 52.33775 | 4.74125 | 846 ft | 167 kts | 13° |
| 2026-05-07 07:40 | 52.34834 | 4.74825 | 1411 ft | 168 kts | 26° |
| 2026-05-07 07:40 | 52.35920 | 4.75611 | 1939 ft | 175 kts | 24° |
| 2026-05-07 07:41 | 52.37069 | 4.76406 | 2422 ft | 185 kts | 24° |
| 2026-05-07 07:41 | 52.38158 | 4.77464 | 2786 ft | 182 kts | 48° |
| 2026-05-07 07:41 | 52.39013 | 4.78972 | 3068 ft | 183 kts | 45° |
| 2026-05-07 07:41 | 52.39909 | 4.80470 | 3329 ft | 186 kts | 45° |
| 2026-05-07 07:42 | 52.40829 | 4.82013 | 3495 ft | 195 kts | 45° |
| 2026-05-07 07:42 | 52.41800 | 4.83661 | 3623 ft | 207 kts | 49° |
| 2026-05-07 07:42 | 52.42404 | 4.85829 | 3757 ft | 220 kts | 86° |
| 2026-05-07 07:42 | 52.42406 | 4.88419 | 3897 ft | 236 kts | 89° |
| 2026-05-07 07:43 | 52.42396 | 4.91220 | 4029 ft | 254 kts | 89° |
| 2026-05-07 07:43 | 52.42397 | 4.94154 | 4450 ft | 261 kts | 89° |
| 2026-05-07 07:43 | 52.42329 | 4.97107 | 5056 ft | 261 kts | 101° |
| 2026-05-07 07:43 | 52.41532 | 4.99757 | 5476 ft | 269 kts | 132° |
| 2026-05-07 07:44 | 52.40083 | 5.01694 | 6006 ft | 271 kts | 144° |
| 2026-05-07 07:44 | 52.38522 | 5.03453 | 6514 ft | 274 kts | 144° |
| 2026-05-07 07:44 | 52.36950 | 5.05230 | 7026 ft | 277 kts | 144° |
| 2026-05-07 07:44 | 52.35368 | 5.07041 | 7594 ft | 280 kts | 144° |
| 2026-05-07 07:45 | 52.33781 | 5.08880 | 8192 ft | 281 kts | 141° |
| 2026-05-07 07:45 | 52.32373 | 5.11111 | 8725 ft | 283 kts | 130° |
| 2026-05-07 07:45 | 52.31071 | 5.13525 | 9294 ft | 286 kts | 130° |
| 2026-05-07 07:45 | 52.29762 | 5.15956 | 9840 ft | 288 kts | 130° |
| 2026-05-07 07:46 | 52.28425 | 5.18410 | 10399 ft | 291 kts | 130° |
| 2026-05-07 07:46 | 52.27074 | 5.20874 | 10819 ft | 298 kts | 131° |
| 2026-05-07 07:46 | 52.25648 | 5.23466 | 11093 ft | 312 kts | 131° |
| 2026-05-07 07:46 | 52.24198 | 5.26176 | 11342 ft | 325 kts | 127° |
| 2026-05-07 07:47 | 52.22843 | 5.29207 | 11614 ft | 340 kts | 124° |
| 2026-05-07 07:47 | 52.21466 | 5.32444 | 11871 ft | 355 kts | 124° |
| 2026-05-07 07:47 | 52.20015 | 5.35839 | 12152 ft | 370 kts | 124° |
| 2026-05-07 07:47 | 52.18544 | 5.39252 | 12848 ft | 371 kts | 124° |
| 2026-05-07 07:48 | 52.17046 | 5.42704 | 13520 ft | 374 kts | 125° |
| 2026-05-07 07:48 | 52.15554 | 5.46136 | 14129 ft | 377 kts | 125° |
| 2026-05-07 07:48 | 52.14028 | 5.49636 | 14744 ft | 380 kts | 125° |
| 2026-05-07 07:48 | 52.12507 | 5.53122 | 15335 ft | 383 kts | 125° |
| 2026-05-07 07:49 | 52.10950 | 5.56686 | 15904 ft | 387 kts | 125° |
| 2026-05-07 07:49 | 52.09394 | 5.60244 | 16462 ft | 390 kts | 125° |
| 2026-05-07 07:49 | 52.07807 | 5.63868 | 17017 ft | 394 kts | 125° |
| 2026-05-07 07:49 | 52.06202 | 5.67474 | 17561 ft | 397 kts | 128° |
| 2026-05-07 07:50 | 52.04444 | 5.70892 | 18104 ft | 400 kts | 131° |
| 2026-05-07 07:50 | 52.02575 | 5.74310 | 18630 ft | 403 kts | 132° |
| 2026-05-07 07:50 | 52.00730 | 5.77676 | 19182 ft | 406 kts | 132° |
| 2026-05-07 07:50 | 51.98859 | 5.81117 | 19731 ft | 408 kts | 131° |
| 2026-05-07 07:51 | 51.96976 | 5.84607 | 20280 ft | 411 kts | 131° |
| 2026-05-07 07:51 | 51.95103 | 5.88101 | 20801 ft | 414 kts | 131° |
| 2026-05-07 07:51 | 51.93228 | 5.91606 | 21318 ft | 417 kts | 131° |
| 2026-05-07 07:51 | 51.91312 | 5.95185 | 21807 ft | 420 kts | 131° |
| 2026-05-07 07:52 | 51.89410 | 5.98734 | 22310 ft | 423 kts | 131° |
| 2026-05-07 07:52 | 51.87478 | 6.02337 | 22791 ft | 426 kts | 131° |
| 2026-05-07 07:52 | 51.85525 | 6.05971 | 23282 ft | 429 kts | 131° |
| 2026-05-07 07:52 | 51.83564 | 6.09600 | 23756 ft | 431 kts | 132° |
| 2026-05-07 07:53 | 51.81598 | 6.13218 | 24205 ft | 434 kts | 132° |
| 2026-05-07 07:53 | 51.79592 | 6.16902 | 24651 ft | 438 kts | 132° |
| 2026-05-07 07:53 | 51.77570 | 6.20612 | 25102 ft | 440 kts | 131° |
| 2026-05-07 07:53 | 51.75554 | 6.24305 | 25549 ft | 443 kts | 131° |
| 2026-05-07 07:54 | 51.73489 | 6.28080 | 25989 ft | 446 kts | 131° |
| 2026-05-07 07:54 | 51.71455 | 6.31785 | 26410 ft | 448 kts | 132° |
| 2026-05-07 07:54 | 51.69379 | 6.35518 | 26811 ft | 451 kts | 132° |
| 2026-05-07 07:54 | 51.67262 | 6.39298 | 27198 ft | 454 kts | 132° |
| 2026-05-07 07:55 | 51.65160 | 6.43040 | 27587 ft | 456 kts | 132° |
| 2026-05-07 07:55 | 51.63026 | 6.46830 | 27988 ft | 458 kts | 132° |
| 2026-05-07 07:55 | 51.60875 | 6.50643 | 28356 ft | 461 kts | 132° |
| 2026-05-07 07:55 | 51.58733 | 6.54436 | 28698 ft | 463 kts | 131° |
| 2026-05-07 07:56 | 51.56559 | 6.58279 | 29051 ft | 466 kts | 131° |
| 2026-05-07 07:56 | 51.54373 | 6.62138 | 29409 ft | 468 kts | 131° |
| 2026-05-07 07:56 | 51.52170 | 6.66019 | 29757 ft | 470 kts | 133° |
| 2026-05-07 07:56 | 51.49976 | 6.69823 | 30075 ft | 472 kts | 133° |
| 2026-05-07 07:57 | 51.47730 | 6.73690 | 30403 ft | 474 kts | 133° |
| 2026-05-07 07:57 | 51.45512 | 6.77522 | 30703 ft | 477 kts | 133° |
| 2026-05-07 07:57 | 51.43246 | 6.81454 | 31011 ft | 479 kts | 132° |
| 2026-05-07 07:57 | 51.40982 | 6.85394 | 31295 ft | 482 kts | 132° |
| 2026-05-07 07:58 | 51.38708 | 6.89357 | 31602 ft | 483 kts | 132° |
| 2026-05-07 07:58 | 51.36436 | 6.93316 | 31876 ft | 485 kts | 132° |
| 2026-05-07 07:58 | 51.34183 | 6.97238 | 32159 ft | 487 kts | 132° |
| 2026-05-07 07:58 | 51.31866 | 7.01264 | 32459 ft | 488 kts | 132° |
| 2026-05-07 07:59 | 51.29587 | 7.05219 | 32737 ft | 490 kts | 132° |
| 2026-05-07 07:59 | 51.27280 | 7.09216 | 32997 ft | 492 kts | 132° |
| 2026-05-07 07:59 | 51.24953 | 7.13242 | 33242 ft | 494 kts | 132° |
| 2026-05-07 07:59 | 51.22619 | 7.17273 | 33485 ft | 495 kts | 132° |
| 2026-05-07 08:00 | 51.20306 | 7.21261 | 33771 ft | 494 kts | 132° |
| 2026-05-07 08:00 | 51.17960 | 7.25299 | 34073 ft | 493 kts | 132° |
| 2026-05-07 08:00 | 51.15642 | 7.29282 | 34363 ft | 491 kts | 132° |
| 2026-05-07 08:00 | 51.13347 | 7.33221 | 34653 ft | 489 kts | 132° |
| 2026-05-07 08:01 | 51.11048 | 7.37159 | 34935 ft | 487 kts | 132° |
| 2026-05-07 08:01 | 51.08761 | 7.41071 | 35195 ft | 485 kts | 133° |
| 2026-05-07 08:01 | 51.06457 | 7.45007 | 35437 ft | 483 kts | 133° |
| 2026-05-07 08:01 | 51.04193 | 7.48867 | 35674 ft | 481 kts | 133° |
| 2026-05-07 08:02 | 51.01922 | 7.52734 | 35871 ft | 480 kts | 133° |
| 2026-05-07 08:02 | 50.99647 | 7.56595 | 36079 ft | 478 kts | 133° |
| 2026-05-07 08:02 | 50.97384 | 7.60424 | 36277 ft | 477 kts | 133° |
| 2026-05-07 08:02 | 50.95120 | 7.64261 | 36470 ft | 475 kts | 133° |
| 2026-05-07 08:03 | 50.92864 | 7.68058 | 36624 ft | 474 kts | 134° |
| 2026-05-07 08:03 | 50.90588 | 7.71832 | 36784 ft | 473 kts | 135° |
| 2026-05-07 08:03 | 50.88331 | 7.75576 | 36899 ft | 473 kts | 134° |
| 2026-05-07 08:04 | 50.83796 | 7.83147 | 36952 ft | 479 kts | 134° |
| 2026-05-07 08:04 | 50.79200 | 7.90844 | 36945 ft | 486 kts | 134° |
| 2026-05-07 08:05 | 50.74513 | 7.98688 | 36939 ft | 493 kts | 134° |
| 2026-05-07 08:05 | 50.69817 | 8.06525 | 36934 ft | 489 kts | 134° |
| 2026-05-07 08:06 | 50.65163 | 8.14264 | 36946 ft | 488 kts | 134° |
| 2026-05-07 08:06 | 50.60498 | 8.21994 | 36951 ft | 491 kts | 134° |
| 2026-05-07 08:07 | 50.55782 | 8.29784 | 36953 ft | 491 kts | 134° |
| 2026-05-07 08:07 | 50.51107 | 8.37485 | 36947 ft | 489 kts | 134° |
| 2026-05-07 08:08 | 50.46392 | 8.45226 | 36947 ft | 491 kts | 134° |
| 2026-05-07 08:08 | 50.41688 | 8.52925 | 36942 ft | 490 kts | 134° |
| 2026-05-07 08:09 | 50.36988 | 8.60595 | 36942 ft | 490 kts | 134° |
| 2026-05-07 08:09 | 50.32240 | 8.68290 | 36943 ft | 491 kts | 135° |
| 2026-05-07 08:10 | 50.27505 | 8.75830 | 36955 ft | 490 kts | 135° |
| 2026-05-07 08:10 | 50.22736 | 8.83474 | 36954 ft | 490 kts | 135° |
| 2026-05-07 08:11 | 50.18016 | 8.91069 | 36954 ft | 490 kts | 135° |
| 2026-05-07 08:11 | 50.13295 | 8.98657 | 36956 ft | 489 kts | 135° |
| 2026-05-07 08:12 | 50.08557 | 9.06247 | 36958 ft | 490 kts | 135° |
| 2026-05-07 08:12 | 50.03778 | 9.13882 | 36958 ft | 491 kts | 135° |
| 2026-05-07 08:13 | 49.99025 | 9.21453 | 36956 ft | 490 kts | 135° |
| 2026-05-07 08:13 | 49.94300 | 9.28955 | 36948 ft | 490 kts | 135° |
| 2026-05-07 08:14 | 49.89534 | 9.36500 | 36949 ft | 491 kts | 135° |
| 2026-05-07 08:14 | 49.84731 | 9.44084 | 36944 ft | 490 kts | 135° |
| 2026-05-07 08:15 | 49.79980 | 9.51563 | 36944 ft | 490 kts | 135° |
| 2026-05-07 08:15 | 49.75196 | 9.59069 | 36945 ft | 491 kts | 136° |
| 2026-05-07 08:16 | 49.70414 | 9.66544 | 36945 ft | 490 kts | 137° |
| 2026-05-07 08:16 | 49.65596 | 9.73925 | 36943 ft | 490 kts | 137° |
| 2026-05-07 08:17 | 49.60781 | 9.81332 | 36946 ft | 491 kts | 137° |
| 2026-05-07 08:17 | 49.55959 | 9.88786 | 36945 ft | 490 kts | 136° |
| 2026-05-07 08:18 | 49.51147 | 9.96223 | 36945 ft | 491 kts | 136° |
| 2026-05-07 08:18 | 49.46325 | 10.03653 | 36946 ft | 491 kts | 137° |
| 2026-05-07 08:19 | 49.41499 | 10.11069 | 36945 ft | 490 kts | 137° |
| 2026-05-07 08:19 | 49.36685 | 10.18445 | 36945 ft | 491 kts | 137° |
| 2026-05-07 08:20 | 49.31859 | 10.25817 | 36942 ft | 490 kts | 137° |
| 2026-05-07 08:20 | 49.27024 | 10.33181 | 36942 ft | 490 kts | 137° |
| 2026-05-07 08:21 | 49.21856 | 10.39936 | 36950 ft | 486 kts | 148° |
| 2026-05-07 08:21 | 49.16118 | 10.45349 | 36945 ft | 487 kts | 151° |
| 2026-05-07 08:22 | 49.10272 | 10.50600 | 36941 ft | 485 kts | 151° |
| 2026-05-07 08:22 | 49.04513 | 10.55792 | 36947 ft | 486 kts | 151° |
| 2026-05-07 08:23 | 48.98690 | 10.61059 | 36952 ft | 486 kts | 151° |
| 2026-05-07 08:23 | 48.92875 | 10.66307 | 36955 ft | 484 kts | 152° |
| 2026-05-07 08:24 | 48.87064 | 10.71441 | 36958 ft | 484 kts | 152° |
| 2026-05-07 08:24 | 48.81337 | 10.76781 | 36958 ft | 487 kts | 144° |
| 2026-05-07 08:25 | 48.76529 | 10.84019 | 36966 ft | 492 kts | 134° |
| 2026-05-07 08:25 | 48.72039 | 10.91776 | 36973 ft | 492 kts | 134° |
| 2026-05-07 08:26 | 48.65212 | 11.03392 | 36977 ft | 491 kts | 135° |
| 2026-05-07 08:26 | 48.60654 | 11.11015 | 36976 ft | 491 kts | 135° |
| 2026-05-07 08:27 | 48.56076 | 11.18634 | 36980 ft | 490 kts | 135° |
| 2026-05-07 08:27 | 48.51476 | 11.26264 | 36979 ft | 491 kts | 135° |
| 2026-05-07 08:28 | 48.46876 | 11.33874 | 36979 ft | 489 kts | 135° |
| 2026-05-07 08:28 | 48.42323 | 11.41385 | 36979 ft | 490 kts | 135° |
| 2026-05-07 08:29 | 48.37731 | 11.48939 | 36980 ft | 490 kts | 135° |
| 2026-05-07 08:29 | 48.33143 | 11.56465 | 36982 ft | 489 kts | 135° |
| 2026-05-07 08:30 | 48.28534 | 11.64002 | 36982 ft | 489 kts | 136° |
| 2026-05-07 08:30 | 48.23798 | 11.71188 | 36982 ft | 485 kts | 141° |
| 2026-05-07 08:31 | 48.18762 | 11.77982 | 36983 ft | 485 kts | 142° |
| 2026-05-07 08:31 | 48.13763 | 11.84740 | 36979 ft | 485 kts | 141° |
| 2026-05-07 08:32 | 48.08799 | 11.91514 | 36980 ft | 483 kts | 141° |
| 2026-05-07 08:32 | 48.03861 | 11.98263 | 36983 ft | 484 kts | 141° |
| 2026-05-07 08:33 | 47.98914 | 12.05010 | 36982 ft | 484 kts | 141° |
| 2026-05-07 08:33 | 47.93922 | 12.11801 | 36982 ft | 483 kts | 142° |
| 2026-05-07 08:34 | 47.88965 | 12.18526 | 36992 ft | 484 kts | 142° |
| 2026-05-07 08:34 | 47.84006 | 12.25237 | 36968 ft | 484 kts | 142° |
| 2026-05-07 08:35 | 47.79041 | 12.31938 | 36968 ft | 482 kts | 142° |
| 2026-05-07 08:35 | 47.74108 | 12.38578 | 36968 ft | 481 kts | 142° |
| 2026-05-07 08:36 | 47.69119 | 12.45269 | 36964 ft | 482 kts | 142° |
| 2026-05-07 08:36 | 47.64167 | 12.51898 | 36987 ft | 481 kts | 142° |
| 2026-05-07 08:37 | 47.59385 | 12.58853 | 36977 ft | 484 kts | 137° |
| 2026-05-07 08:37 | 47.54859 | 12.66291 | 36990 ft | 485 kts | 137° |
| 2026-05-07 08:38 | 47.50326 | 12.73566 | 36993 ft | 484 kts | 138° |
| 2026-05-07 08:38 | 47.45760 | 12.80828 | 36993 ft | 481 kts | 138° |
| 2026-05-07 08:39 | 47.41206 | 12.88073 | 36990 ft | 482 kts | 138° |
| 2026-05-07 08:39 | 47.36648 | 12.95318 | 36987 ft | 481 kts | 138° |
| 2026-05-07 08:40 | 47.32095 | 13.02539 | 36993 ft | 482 kts | 138° |
| 2026-05-07 08:40 | 47.27560 | 13.09716 | 36991 ft | 481 kts | 138° |
| 2026-05-07 08:41 | 47.22997 | 13.16913 | 36870 ft | 477 kts | 138° |
| 2026-05-07 08:41 | 47.20736 | 13.20473 | 37104 ft | 480 kts | 138° |
| 2026-05-07 08:41 | 47.18469 | 13.24033 | 36998 ft | 484 kts | 138° |
| 2026-05-07 08:42 | 47.13884 | 13.31229 | 36939 ft | 480 kts | 138° |
| 2026-05-07 08:42 | 47.09329 | 13.38363 | 36968 ft | 477 kts | 138° |
| 2026-05-07 08:43 | 47.04794 | 13.45434 | 36949 ft | 482 kts | 138° |
| 2026-05-07 08:43 | 47.00193 | 13.52592 | 36933 ft | 481 kts | 138° |
| 2026-05-07 08:44 | 46.97900 | 13.56158 | 36814 ft | 476 kts | 138° |
| 2026-05-07 08:44 | 46.95643 | 13.59663 | 36906 ft | 476 kts | 138° |
| 2026-05-07 08:44 | 46.91101 | 13.66682 | 36949 ft | 480 kts | 139° |
| 2026-05-07 08:45 | 46.86435 | 13.73763 | 36965 ft | 484 kts | 139° |
| 2026-05-07 08:45 | 46.81816 | 13.80809 | 36972 ft | 482 kts | 139° |
| 2026-05-07 08:46 | 46.77227 | 13.87846 | 36973 ft | 480 kts | 139° |
| 2026-05-07 08:46 | 46.72601 | 13.94925 | 36981 ft | 483 kts | 139° |
| 2026-05-07 08:47 | 46.67970 | 14.02001 | 36981 ft | 481 kts | 139° |
| 2026-05-07 08:47 | 46.63371 | 14.09010 | 36990 ft | 481 kts | 139° |
| 2026-05-07 08:48 | 46.58758 | 14.16015 | 36984 ft | 483 kts | 139° |
| 2026-05-07 08:48 | 46.54090 | 14.23028 | 36987 ft | 483 kts | 140° |
| 2026-05-07 08:49 | 46.49441 | 14.29975 | 36989 ft | 481 kts | 140° |
| 2026-05-07 08:49 | 46.44777 | 14.36925 | 36989 ft | 483 kts | 140° |
| 2026-05-07 08:50 | 46.40082 | 14.43909 | 36989 ft | 482 kts | 140° |
| 2026-05-07 08:50 | 46.35432 | 14.50809 | 36987 ft | 482 kts | 140° |
| 2026-05-07 08:51 | 46.30736 | 14.57758 | 36971 ft | 482 kts | 140° |
| 2026-05-07 08:51 | 46.26048 | 14.64677 | 36993 ft | 483 kts | 140° |
| 2026-05-07 08:52 | 46.21327 | 14.71539 | 36982 ft | 479 kts | 141° |
| 2026-05-07 08:52 | 46.16636 | 14.78336 | 36979 ft | 481 kts | 140° |
| 2026-05-07 08:53 | 46.11940 | 14.85186 | 36987 ft | 480 kts | 140° |
| 2026-05-07 08:53 | 46.07268 | 14.92009 | 36978 ft | 479 kts | 140° |
| 2026-05-07 08:54 | 46.02569 | 14.98853 | 36993 ft | 482 kts | 140° |
| 2026-05-07 08:54 | 45.97880 | 15.05669 | 36980 ft | 481 kts | 140° |
| 2026-05-07 08:55 | 45.93153 | 15.12523 | 36987 ft | 479 kts | 140° |
| 2026-05-07 08:55 | 45.88466 | 15.19300 | 36995 ft | 481 kts | 140° |
| 2026-05-07 08:56 | 45.83776 | 15.26067 | 36977 ft | 480 kts | 140° |
| 2026-05-07 08:56 | 45.79080 | 15.32827 | 36992 ft | 480 kts | 140° |
| 2026-05-07 08:57 | 45.74042 | 15.38936 | 36999 ft | 473 kts | 149° |
| 2026-05-07 08:57 | 45.68675 | 15.44376 | 36995 ft | 473 kts | 150° |
| 2026-05-07 08:58 | 45.63326 | 15.49766 | 36995 ft | 472 kts | 150° |
| 2026-05-07 08:58 | 45.57975 | 15.55203 | 36985 ft | 473 kts | 149° |
| 2026-05-07 08:59 | 45.52629 | 15.60650 | 36992 ft | 472 kts | 149° |
| 2026-05-07 08:59 | 45.47265 | 15.66103 | 36985 ft | 473 kts | 150° |
| 2026-05-07 09:00 | 45.41914 | 15.71442 | 36981 ft | 470 kts | 150° |
| 2026-05-07 09:00 | 45.36578 | 15.76784 | 36984 ft | 472 kts | 150° |
| 2026-05-07 09:01 | 45.31211 | 15.82187 | 36985 ft | 474 kts | 150° |
| 2026-05-07 09:01 | 45.25834 | 15.87605 | 36980 ft | 473 kts | 150° |
| 2026-05-07 09:02 | 45.20471 | 15.93000 | 36981 ft | 472 kts | 150° |
| 2026-05-07 09:02 | 45.15128 | 15.98359 | 36991 ft | 473 kts | 150° |
| 2026-05-07 09:03 | 45.09765 | 16.03726 | 36993 ft | 475 kts | 150° |
| 2026-05-07 09:03 | 45.04372 | 16.09111 | 36993 ft | 474 kts | 150° |
| 2026-05-07 09:04 | 44.99000 | 16.14463 | 36997 ft | 474 kts | 150° |
| 2026-05-07 09:04 | 44.93615 | 16.19814 | 36998 ft | 476 kts | 150° |
| 2026-05-07 09:05 | 44.88209 | 16.25174 | 36999 ft | 476 kts | 149° |
| 2026-05-07 09:05 | 44.82793 | 16.30535 | 37003 ft | 475 kts | 149° |
| 2026-05-07 09:06 | 44.77372 | 16.35884 | 37008 ft | 477 kts | 149° |
| 2026-05-07 09:06 | 44.71957 | 16.41216 | 37011 ft | 477 kts | 149° |
| 2026-05-07 09:07 | 44.66510 | 16.46567 | 37019 ft | 476 kts | 149° |
| 2026-05-07 09:07 | 44.61077 | 16.51889 | 37011 ft | 479 kts | 149° |
| 2026-05-07 09:08 | 44.55621 | 16.57224 | 37016 ft | 478 kts | 149° |
| 2026-05-07 09:08 | 44.50163 | 16.62547 | 37018 ft | 479 kts | 149° |
| 2026-05-07 09:09 | 44.44666 | 16.67865 | 37027 ft | 479 kts | 150° |
| 2026-05-07 09:09 | 44.39199 | 16.73082 | 37023 ft | 478 kts | 150° |
| 2026-05-07 09:10 | 44.33735 | 16.78333 | 37028 ft | 479 kts | 150° |
| 2026-05-07 09:10 | 44.28231 | 16.83567 | 37036 ft | 479 kts | 148° |
| 2026-05-07 09:11 | 44.23124 | 16.89590 | 37042 ft | 484 kts | 142° |
| 2026-05-07 09:11 | 44.18087 | 16.95835 | 37044 ft | 485 kts | 143° |
| 2026-05-07 09:12 | 44.12967 | 17.01954 | 37043 ft | 484 kts | 144° |
| 2026-05-07 09:12 | 44.07801 | 17.08005 | 37044 ft | 484 kts | 144° |
| 2026-05-07 09:13 | 44.02678 | 17.13969 | 37045 ft | 482 kts | 144° |
| 2026-05-07 09:13 | 43.97519 | 17.19955 | 37046 ft | 484 kts | 144° |
| 2026-05-07 09:14 | 43.92375 | 17.25913 | 37045 ft | 482 kts | 144° |
| 2026-05-07 09:14 | 43.87237 | 17.31851 | 37046 ft | 481 kts | 144° |
| 2026-05-07 09:15 | 43.82104 | 17.37770 | 37044 ft | 482 kts | 143° |
| 2026-05-07 09:15 | 43.76946 | 17.43707 | 37046 ft | 481 kts | 144° |
| 2026-05-07 09:16 | 43.71809 | 17.49601 | 37045 ft | 482 kts | 143° |
| 2026-05-07 09:16 | 43.66647 | 17.55511 | 37045 ft | 482 kts | 144° |
| 2026-05-07 09:17 | 43.61496 | 17.61396 | 37042 ft | 481 kts | 143° |
| 2026-05-07 09:17 | 43.56329 | 17.67268 | 37053 ft | 482 kts | 145° |
| 2026-05-07 09:18 | 43.51137 | 17.73073 | 37059 ft | 480 kts | 144° |
| 2026-05-07 09:18 | 43.45938 | 17.78921 | 37049 ft | 481 kts | 144° |
| 2026-05-07 09:19 | 43.40765 | 17.84762 | 37056 ft | 482 kts | 144° |
| 2026-05-07 09:19 | 43.35611 | 17.90584 | 37052 ft | 480 kts | 144° |
| 2026-05-07 09:20 | 43.30465 | 17.96382 | 37052 ft | 482 kts | 144° |
| 2026-05-07 09:20 | 43.25250 | 18.02245 | 37058 ft | 482 kts | 144° |
| 2026-05-07 09:21 | 43.20095 | 18.08028 | 37062 ft | 480 kts | 144° |
| 2026-05-07 09:21 | 43.14922 | 18.13816 | 37065 ft | 481 kts | 144° |
| 2026-05-07 09:22 | 43.09765 | 18.19573 | 37073 ft | 481 kts | 144° |
| 2026-05-07 09:22 | 43.04565 | 18.25367 | 37075 ft | 481 kts | 144° |
| 2026-05-07 09:23 | 42.99408 | 18.31099 | 37073 ft | 481 kts | 144° |
| 2026-05-07 09:23 | 42.94192 | 18.36883 | 37078 ft | 481 kts | 144° |
| 2026-05-07 09:24 | 42.89017 | 18.42610 | 37091 ft | 480 kts | 144° |
| 2026-05-07 09:24 | 42.83817 | 18.48353 | 37086 ft | 483 kts | 144° |
| 2026-05-07 09:25 | 42.78598 | 18.54104 | 37087 ft | 482 kts | 144° |
| 2026-05-07 09:25 | 42.73399 | 18.59820 | 37095 ft | 480 kts | 144° |
| 2026-05-07 09:26 | 42.68195 | 18.65525 | 37090 ft | 483 kts | 145° |
| 2026-05-07 09:26 | 42.62956 | 18.71173 | 37088 ft | 479 kts | 146° |
| 2026-05-07 09:27 | 42.57722 | 18.76824 | 37087 ft | 480 kts | 146° |
| 2026-05-07 09:28 | 42.49925 | 18.85293 | 37095 ft | 480 kts | 145° |
| 2026-05-07 09:28 | 42.44712 | 18.90953 | 37097 ft | 479 kts | 146° |
| 2026-05-07 09:29 | 42.39512 | 18.96587 | 37095 ft | 479 kts | 145° |
| 2026-05-07 09:29 | 42.34313 | 19.02206 | 37103 ft | 480 kts | 145° |
| 2026-05-07 09:30 | 42.29100 | 19.07831 | 37099 ft | 479 kts | 145° |
| 2026-05-07 09:30 | 42.23889 | 19.13439 | 37098 ft | 480 kts | 145° |
| 2026-05-07 09:31 | 42.18679 | 19.19037 | 37099 ft | 480 kts | 146° |
| 2026-05-07 09:31 | 42.13484 | 19.24603 | 37095 ft | 481 kts | 146° |
| 2026-05-07 09:32 | 42.08226 | 19.30225 | 37093 ft | 480 kts | 145° |
| 2026-05-07 09:32 | 42.03019 | 19.35781 | 37089 ft | 481 kts | 145° |
| 2026-05-07 09:33 | 41.97775 | 19.41364 | 37089 ft | 481 kts | 145° |
| 2026-05-07 09:33 | 41.92544 | 19.46922 | 37082 ft | 481 kts | 145° |
| 2026-05-07 09:34 | 41.87269 | 19.52514 | 37074 ft | 483 kts | 146° |
| 2026-05-07 09:34 | 41.82024 | 19.58067 | 37088 ft | 481 kts | 146° |
| 2026-05-07 09:35 | 41.76784 | 19.63599 | 37094 ft | 482 kts | 146° |
| 2026-05-07 09:35 | 41.71498 | 19.69117 | 37096 ft | 481 kts | 147° |
| 2026-05-07 09:36 | 41.66202 | 19.74603 | 37102 ft | 482 kts | 146° |
| 2026-05-07 09:36 | 41.60878 | 19.80156 | 37103 ft | 485 kts | 146° |
| 2026-05-07 09:37 | 41.55603 | 19.85672 | 37111 ft | 484 kts | 146° |
| 2026-05-07 09:37 | 41.50318 | 19.91194 | 37112 ft | 482 kts | 146° |
| 2026-05-07 09:38 | 41.44988 | 19.96746 | 37125 ft | 485 kts | 146° |
| 2026-05-07 09:38 | 41.39697 | 20.02248 | 37120 ft | 485 kts | 146° |
| 2026-05-07 09:39 | 41.34366 | 20.07780 | 37121 ft | 486 kts | 146° |
| 2026-05-07 09:39 | 41.29033 | 20.13302 | 37119 ft | 486 kts | 146° |
| 2026-05-07 09:40 | 41.23693 | 20.18818 | 37117 ft | 488 kts | 146° |
| 2026-05-07 09:40 | 41.18348 | 20.24329 | 37119 ft | 489 kts | 146° |
| 2026-05-07 09:41 | 41.12961 | 20.29874 | 37122 ft | 487 kts | 146° |
| 2026-05-07 09:41 | 41.07614 | 20.35361 | 37136 ft | 489 kts | 146° |
| 2026-05-07 09:41 | 41.04927 | 20.38115 | 36915 ft | 489 kts | 146° |
| 2026-05-07 09:42 | 41.02258 | 20.40851 | 36638 ft | 480 kts | 146° |
| 2026-05-07 09:42 | 40.99663 | 20.43510 | 36386 ft | 472 kts | 146° |
| 2026-05-07 09:42 | 40.97069 | 20.46162 | 36174 ft | 473 kts | 146° |
| 2026-05-07 09:42 | 40.94457 | 20.48823 | 35962 ft | 477 kts | 146° |
| 2026-05-07 09:43 | 40.91797 | 20.51530 | 35752 ft | 482 kts | 146° |
| 2026-05-07 09:43 | 40.89127 | 20.54247 | 35542 ft | 483 kts | 146° |
| 2026-05-07 09:43 | 40.86500 | 20.56922 | 35329 ft | 478 kts | 146° |
| 2026-05-07 09:43 | 40.83873 | 20.59597 | 35193 ft | 474 kts | 146° |
| 2026-05-07 09:44 | 40.81235 | 20.62275 | 35166 ft | 479 kts | 146° |
| 2026-05-07 09:44 | 40.75903 | 20.67654 | 35152 ft | 488 kts | 147° |
| 2026-05-07 09:45 | 40.70465 | 20.73071 | 35159 ft | 487 kts | 147° |
| 2026-05-07 09:45 | 40.65102 | 20.78451 | 35166 ft | 484 kts | 147° |
| 2026-05-07 09:46 | 40.59761 | 20.83823 | 35174 ft | 487 kts | 147° |
| 2026-05-07 09:46 | 40.54340 | 20.89272 | 35174 ft | 489 kts | 146° |
| 2026-05-07 09:47 | 40.48957 | 20.94675 | 35174 ft | 488 kts | 146° |
| 2026-05-07 09:47 | 40.43720 | 21.00399 | 35186 ft | 494 kts | 142° |
| 2026-05-07 09:48 | 40.38580 | 21.06446 | 35191 ft | 498 kts | 142° |
| 2026-05-07 09:48 | 40.33424 | 21.12462 | 35186 ft | 494 kts | 142° |
| 2026-05-07 09:49 | 40.28257 | 21.18422 | 35186 ft | 497 kts | 142° |
| 2026-05-07 09:49 | 40.23046 | 21.24404 | 35186 ft | 498 kts | 142° |
| 2026-05-07 09:50 | 40.17836 | 21.30373 | 35188 ft | 498 kts | 142° |
| 2026-05-07 09:50 | 40.12624 | 21.36330 | 35180 ft | 497 kts | 142° |
| 2026-05-07 09:51 | 40.07422 | 21.42262 | 35180 ft | 498 kts | 142° |
| 2026-05-07 09:51 | 40.02182 | 21.48227 | 35176 ft | 498 kts | 142° |
| 2026-05-07 09:52 | 39.96981 | 21.54134 | 35178 ft | 499 kts | 142° |
| 2026-05-07 09:52 | 39.91719 | 21.60095 | 35165 ft | 502 kts | 142° |
| 2026-05-07 09:53 | 39.86453 | 21.66049 | 35159 ft | 500 kts | 143° |
| 2026-05-07 09:53 | 39.81165 | 21.71930 | 35159 ft | 501 kts | 143° |
| 2026-05-07 09:54 | 39.75892 | 21.77810 | 35158 ft | 501 kts | 143° |
| 2026-05-07 09:54 | 39.70611 | 21.83730 | 35156 ft | 504 kts | 143° |
| 2026-05-07 09:55 | 39.65310 | 21.89671 | 35146 ft | 506 kts | 143° |
| 2026-05-07 09:55 | 39.59982 | 21.95635 | 35133 ft | 502 kts | 143° |
| 2026-05-07 09:56 | 39.54673 | 22.01562 | 35128 ft | 508 kts | 143° |
| 2026-05-07 09:56 | 39.49314 | 22.07529 | 35121 ft | 511 kts | 143° |
| 2026-05-07 09:57 | 39.43930 | 22.13516 | 35132 ft | 512 kts | 143° |
| 2026-05-07 09:57 | 39.38527 | 22.19511 | 35119 ft | 510 kts | 143° |
| 2026-05-07 09:58 | 39.33106 | 22.25510 | 35131 ft | 515 kts | 143° |
| 2026-05-07 09:58 | 39.27652 | 22.31535 | 35121 ft | 513 kts | 143° |
| 2026-05-07 09:59 | 39.22260 | 22.37479 | 35118 ft | 513 kts | 142° |
| 2026-05-07 09:59 | 39.16796 | 22.43485 | 35120 ft | 519 kts | 143° |
| 2026-05-07 10:00 | 39.11326 | 22.49490 | 35140 ft | 518 kts | 142° |
| 2026-05-07 10:00 | 39.05819 | 22.55523 | 34893 ft | 522 kts | 142° |
| 2026-05-07 10:00 | 39.03081 | 22.58516 | 34546 ft | 521 kts | 142° |
| 2026-05-07 10:01 | 39.00315 | 22.61538 | 34130 ft | 512 kts | 142° |
| 2026-05-07 10:01 | 38.97637 | 22.64464 | 33622 ft | 503 kts | 142° |
| 2026-05-07 10:01 | 38.95003 | 22.67324 | 33118 ft | 495 kts | 143° |
| 2026-05-07 10:01 | 38.92383 | 22.70135 | 32613 ft | 487 kts | 143° |
| 2026-05-07 10:02 | 38.89815 | 22.72890 | 32103 ft | 480 kts | 143° |
| 2026-05-07 10:02 | 38.87281 | 22.75618 | 31546 ft | 475 kts | 143° |
| 2026-05-07 10:02 | 38.84755 | 22.78346 | 30991 ft | 470 kts | 143° |
| 2026-05-07 10:02 | 38.82279 | 22.81024 | 30443 ft | 465 kts | 142° |
| 2026-05-07 10:03 | 38.79824 | 22.83682 | 29903 ft | 461 kts | 143° |
| 2026-05-07 10:03 | 38.77378 | 22.86330 | 29367 ft | 457 kts | 143° |
| 2026-05-07 10:03 | 38.74953 | 22.88951 | 28833 ft | 454 kts | 142° |
| 2026-05-07 10:03 | 38.72559 | 22.91540 | 28301 ft | 450 kts | 142° |
| 2026-05-07 10:04 | 38.70198 | 22.94090 | 27777 ft | 448 kts | 142° |
| 2026-05-07 10:04 | 38.67804 | 22.96673 | 27247 ft | 452 kts | 142° |
| 2026-05-07 10:04 | 38.65385 | 22.99276 | 26723 ft | 462 kts | 142° |
| 2026-05-07 10:04 | 38.62904 | 23.01944 | 26204 ft | 463 kts | 142° |
| 2026-05-07 10:05 | 38.60457 | 23.04577 | 25685 ft | 459 kts | 142° |
| 2026-05-07 10:05 | 38.58025 | 23.07191 | 25160 ft | 454 kts | 142° |
| 2026-05-07 10:05 | 38.55614 | 23.09782 | 24636 ft | 451 kts | 142° |
| 2026-05-07 10:05 | 38.53224 | 23.12347 | 24103 ft | 447 kts | 142° |
| 2026-05-07 10:06 | 38.50875 | 23.14864 | 23596 ft | 442 kts | 142° |
| 2026-05-07 10:06 | 38.48539 | 23.17367 | 23114 ft | 439 kts | 142° |
| 2026-05-07 10:06 | 38.46210 | 23.19859 | 22640 ft | 435 kts | 142° |
| 2026-05-07 10:06 | 38.43913 | 23.22313 | 22172 ft | 431 kts | 142° |
| 2026-05-07 10:07 | 38.41597 | 23.24786 | 21694 ft | 428 kts | 142° |
| 2026-05-07 10:07 | 38.39333 | 23.27203 | 21234 ft | 425 kts | 142° |
| 2026-05-07 10:07 | 38.37087 | 23.29596 | 20764 ft | 423 kts | 142° |
| 2026-05-07 10:07 | 38.34824 | 23.32006 | 20293 ft | 420 kts | 142° |
| 2026-05-07 10:08 | 38.32597 | 23.34375 | 19829 ft | 416 kts | 142° |
| 2026-05-07 10:08 | 38.30385 | 23.36727 | 19361 ft | 414 kts | 142° |
| 2026-05-07 10:08 | 38.28214 | 23.39032 | 18902 ft | 410 kts | 142° |
| 2026-05-07 10:08 | 38.26021 | 23.41362 | 18421 ft | 406 kts | 142° |
| 2026-05-07 10:09 | 38.23860 | 23.43653 | 17955 ft | 403 kts | 142° |
| 2026-05-07 10:09 | 38.21720 | 23.45919 | 17492 ft | 399 kts | 142° |
| 2026-05-07 10:09 | 38.19590 | 23.48174 | 17028 ft | 398 kts | 142° |
| 2026-05-07 10:09 | 38.17466 | 23.50419 | 16567 ft | 396 kts | 142° |
| 2026-05-07 10:10 | 38.15351 | 23.52587 | 16100 ft | 393 kts | 140° |
| 2026-05-07 10:10 | 38.13428 | 23.55073 | 15646 ft | 393 kts | 133° |
| 2026-05-07 10:10 | 38.11628 | 23.57642 | 15193 ft | 391 kts | 133° |
| 2026-05-07 10:10 | 38.09781 | 23.60219 | 14729 ft | 389 kts | 134° |
| 2026-05-07 10:11 | 38.07948 | 23.62685 | 14278 ft | 386 kts | 134° |
| 2026-05-07 10:11 | 38.06071 | 23.65154 | 13823 ft | 386 kts | 135° |
| 2026-05-07 10:11 | 38.04216 | 23.67544 | 13375 ft | 383 kts | 136° |
| 2026-05-07 10:11 | 38.02338 | 23.69948 | 12917 ft | 380 kts | 135° |
| 2026-05-07 10:12 | 38.00481 | 23.72336 | 12516 ft | 376 kts | 135° |
| 2026-05-07 10:12 | 37.98679 | 23.74664 | 12154 ft | 373 kts | 135° |
| 2026-05-07 10:12 | 37.96862 | 23.77018 | 11784 ft | 371 kts | 135° |
| 2026-05-07 10:12 | 37.95072 | 23.79337 | 11471 ft | 363 kts | 135° |
| 2026-05-07 10:13 | 37.93328 | 23.81595 | 11224 ft | 353 kts | 135° |
| 2026-05-07 10:13 | 37.91619 | 23.83806 | 10978 ft | 344 kts | 135° |
| 2026-05-07 10:13 | 37.89976 | 23.85931 | 10737 ft | 336 kts | 134° |
| 2026-05-07 10:13 | 37.88356 | 23.88024 | 10497 ft | 329 kts | 134° |
| 2026-05-07 10:14 | 37.86759 | 23.90085 | 10227 ft | 325 kts | 134° |
| 2026-05-07 10:14 | 37.85204 | 23.92092 | 9914 ft | 320 kts | 134° |
| 2026-05-07 10:14 | 37.83648 | 23.94099 | 9596 ft | 316 kts | 134° |
| 2026-05-07 10:14 | 37.82119 | 23.96068 | 9277 ft | 311 kts | 134° |
| 2026-05-07 10:15 | 37.80609 | 23.98036 | 8964 ft | 307 kts | 131° |
| 2026-05-07 10:15 | 37.79504 | 24.00271 | 8657 ft | 301 kts | 110° |
| 2026-05-07 10:15 | 37.79239 | 24.02855 | 8330 ft | 295 kts | 81° |
| 2026-05-07 10:15 | 37.79890 | 24.05249 | 8016 ft | 288 kts | 63° |
| 2026-05-07 10:16 | 37.80783 | 24.07459 | 7668 ft | 276 kts | 62° |
| 2026-05-07 10:16 | 37.81729 | 24.09489 | 7313 ft | 265 kts | 51° |
| 2026-05-07 10:16 | 37.82982 | 24.11179 | 6966 ft | 262 kts | 40° |
| 2026-05-07 10:16 | 37.84410 | 24.12595 | 6611 ft | 262 kts | 35° |
| 2026-05-07 10:17 | 37.85911 | 24.13897 | 6261 ft | 263 kts | 33° |
| 2026-05-07 10:17 | 37.87438 | 24.15160 | 5919 ft | 263 kts | 32° |
| 2026-05-07 10:17 | 37.88983 | 24.16417 | 5565 ft | 264 kts | 32° |
| 2026-05-07 10:17 | 37.90541 | 24.17680 | 5247 ft | 263 kts | 32° |
| 2026-05-07 10:18 | 37.92075 | 24.18922 | 5006 ft | 259 kts | 32° |
| 2026-05-07 10:18 | 37.93577 | 24.20140 | 4763 ft | 256 kts | 32° |
| 2026-05-07 10:18 | 37.95073 | 24.21352 | 4516 ft | 252 kts | 33° |
| 2026-05-07 10:18 | 37.96540 | 24.22542 | 4276 ft | 249 kts | 33° |
| 2026-05-07 10:19 | 37.97982 | 24.23712 | 4037 ft | 246 kts | 33° |
| 2026-05-07 10:19 | 37.99539 | 24.24556 | 3781 ft | 241 kts | 4° |
| 2026-05-07 10:19 | 38.01157 | 24.24245 | 3539 ft | 234 kts | 338° |
| 2026-05-07 10:19 | 38.02659 | 24.23480 | 3298 ft | 229 kts | 335° |
| 2026-05-07 10:20 | 38.04107 | 24.22693 | 3083 ft | 222 kts | 335° |
| 2026-05-07 10:20 | 38.05496 | 24.21928 | 3009 ft | 215 kts | 334° |
| 2026-05-07 10:20 | 38.06731 | 24.20891 | 2999 ft | 215 kts | 318° |
| 2026-05-07 10:20 | 38.07873 | 24.19681 | 2992 ft | 212 kts | 318° |
| 2026-05-07 10:21 | 38.09013 | 24.18469 | 2992 ft | 213 kts | 316° |
| 2026-05-07 10:21 | 38.09813 | 24.16934 | 2998 ft | 209 kts | 279° |
| 2026-05-07 10:21 | 38.09986 | 24.15156 | 2990 ft | 195 kts | 274° |
| 2026-05-07 10:21 | 38.10120 | 24.13487 | 2988 ft | 191 kts | 273° |
| 2026-05-07 10:22 | 38.10246 | 24.11814 | 2986 ft | 190 kts | 273° |
| 2026-05-07 10:22 | 38.10327 | 24.10115 | 2979 ft | 188 kts | 259° |
| 2026-05-07 10:22 | 38.09777 | 24.08660 | 2981 ft | 185 kts | 221° |
| 2026-05-07 10:22 | 38.08711 | 24.07737 | 2993 ft | 185 kts | 214° |
| 2026-05-07 10:23 | 38.07684 | 24.06744 | 2985 ft | 183 kts | 217° |
| 2026-05-07 10:23 | 38.06685 | 24.05751 | 2997 ft | 180 kts | 216° |
| 2026-05-07 10:23 | 38.05728 | 24.04819 | 2986 ft | 170 kts | 216° |
| 2026-05-07 10:23 | 38.04771 | 24.03901 | 2988 ft | 173 kts | 215° |
| 2026-05-07 10:24 | 38.03817 | 24.02992 | 2977 ft | 171 kts | 215° |
| 2026-05-07 10:24 | 38.02863 | 24.02105 | 2796 ft | 167 kts | 214° |
| 2026-05-07 10:24 | 38.01925 | 24.01249 | 2559 ft | 164 kts | 214° |
| 2026-05-07 10:24 | 38.01047 | 24.00404 | 2286 ft | 156 kts | 218° |
| 2026-05-07 10:25 | 38.00224 | 23.99546 | 1948 ft | 152 kts | 216° |
| 2026-05-07 10:25 | 37.99375 | 23.98750 | 1614 ft | 149 kts | 213° |
| 2026-05-07 10:25 | 37.98549 | 23.97992 | 1327 ft | 147 kts | 215° |
| 2026-05-07 10:25 | 37.97747 | 23.97197 | 1095 ft | 143 kts | 216° |
| 2026-05-07 10:26 | 37.96954 | 23.96451 | 869 ft | 140 kts | 214° |
| 2026-05-07 10:26 | 37.96179 | 23.95713 | 685 ft | 141 kts | 214° |
| 2026-05-07 10:26 | 37.95388 | 23.94965 | 489 ft | 142 kts | 214° |
| 2026-05-07 10:26 | 37.94579 | 23.94196 | 313 ft | 144 kts | 214° |
| 2026-05-07 10:27 | 37.93812 | 23.93475 | 291 ft | 123 kts | 217° |
| 2026-05-07 10:27 | 37.93260 | 23.92948 | 291 ft | 75 kts | 217° |
| 2026-05-07 10:27 | 37.92967 | 23.92667 | 290 ft | 33 kts | 217° |
| 2026-05-07 10:27 | 37.92766 | 23.92537 | 291 ft | 31 kts | 193° |
| 2026-05-07 10:28 | 37.92630 | 23.92527 | 290 ft | 13 kts | 153° |
| 2026-05-07 10:28 | 37.92569 | 23.92612 | 290 ft | 12 kts | 128° |
| 2026-05-07 10:28 | 37.92568 | 23.92703 | 290 ft | 11 kts | 51° |
| 2026-05-07 10:28 | 37.92625 | 23.92766 | 290 ft | 10 kts | 36° |
| 2026-05-07 10:29 | 37.92686 | 23.92823 | 290 ft | 11 kts | 37° |
| 2026-05-07 10:29 | 37.92754 | 23.92888 | 290 ft | 13 kts | 37° |
| 2026-05-07 10:29 | 37.92835 | 23.92965 | 290 ft | 15 kts | 37° |
| 2026-05-07 10:30 | 37.93018 | 23.93137 | 290 ft | 17 kts | 36° |
| 2026-05-07 10:30 | 37.93115 | 23.93229 | 290 ft | 17 kts | 38° |
| 2026-05-07 10:30 | 37.93215 | 23.93327 | 290 ft | 18 kts | 37° |
| 2026-05-07 10:30 | 37.93315 | 23.93421 | 290 ft | 14 kts | 36° |
| 2026-05-07 10:31 | 37.93373 | 23.93486 | 290 ft | 8 kts | 72° |
| 2026-05-07 10:31 | 37.93358 | 23.93561 | 290 ft | 10 kts | 126° |
| 2026-05-07 10:31 | 37.93305 | 23.93650 | 290 ft | 14 kts | 127° |
| 2026-05-07 10:31 | 37.93237 | 23.93764 | 290 ft | 16 kts | 127° |
| 2026-05-07 10:32 | 37.93167 | 23.93881 | 290 ft | 16 kts | 127° |
| 2026-05-07 10:32 | 37.93095 | 23.93999 | 291 ft | 16 kts | 128° |
| 2026-05-07 10:32 | 37.93024 | 23.94118 | 290 ft | 17 kts | 127° |
| 2026-05-07 10:32 | 37.92950 | 23.94241 | 290 ft | 17 kts | 127° |
| 2026-05-07 10:33 | 37.92892 | 23.94340 | 290 ft | 11 kts | 120° |
| 2026-05-07 10:33 | 37.92903 | 23.94424 | 290 ft | 10 kts | 43° |
| 2026-05-07 10:33 | 37.92973 | 23.94494 | 290 ft | 14 kts | 37° |
| 2026-05-07 10:33 | 37.93059 | 23.94574 | 290 ft | 15 kts | 28° |
| 2026-05-07 10:34 | 37.93163 | 23.94593 | 290 ft | 15 kts | 1° |
| 2026-05-07 10:34 | 37.93255 | 23.94636 | 290 ft | 15 kts | 39° |
| 2026-05-07 10:34 | 37.93345 | 23.94726 | 290 ft | 16 kts | 36° |
| 2026-05-07 10:34 | 37.93438 | 23.94815 | 290 ft | 17 kts | 37° |
| 2026-05-07 10:35 | 37.93533 | 23.94908 | 290 ft | 17 kts | 38° |
| 2026-05-07 10:35 | 37.93632 | 23.95001 | 290 ft | 15 kts | 36° |
| 2026-05-07 10:35 | 37.93703 | 23.95068 | 290 ft | 8 kts | 37° |
| 2026-05-07 10:35 | 37.93750 | 23.95085 | 290 ft | 7 kts | 336° |
| 2026-05-07 10:36 | 37.93777 | 23.95048 | 290 ft | 4 kts | 306° |
| 2026-05-07 10:36 | 37.93789 | 23.95028 | 290 ft | 1 kts | 306° |
| 2026-05-07 10:36 | 37.93789 | 23.95027 | 290 ft | 0 kts | 306° |